Frankfort, MI

4:04 PM EST on December 11, 2019 (GMT -0500)
Frankfort

Weather History for KFKS - October, 2019

Change the Weather History Date:

Thursday, October 31, 2019

  Actual Average (KMBL) Record (KMBL)
Temperature  
Mean Temperature 35 °F -  
Max Temperature 37 °F 56 °F 74 °F (1950)
Min Temperature 33 °F 38 °F 19 °F (1992)
Degree Days  
Heating Degree Days 30    
Moisture  
Dew Point 33 °F    
Average Humidity 89    
Maximum Humidity 94    
Minimum Humidity 71    
Precipitation  
Precipitation 0.00 in - - ()
Sea Level Pressure  
Sea Level Pressure 29.86 in    
Wind  
Wind Speed 9 mph (North)    
Max Wind Speed 18 mph    
Max Gust Speed 29 mph    
Visibility 7 miles    
Events Rain , Snow    
Averages and records for this station are not official NWS values.
T = Trace of Precipitation, MM = Missing Value Source: NWS Daily Summary

Daily Weather History Graph

Daily Weather History Graph

Search for Another Location

Airport or City:

Astronomy

Oct. 31, 2019 Rise Set
Actual Time 8:20 AM EDT 6:35 PM EDT
Civil Twilight 7:50 AM EDT 7:05 PM EDT
Nautical Twilight 7:16 AM EDT 7:39 PM EDT
Astronomical Twilight 6:42 AM EDT 8:13 PM EDT
Moon 12:15 PM EDT (10/31) 9:23 PM EDT (10/31)
Length of Visible Light 11h 15m
Length of Day
10h 14m
Waxing Crescent, 15% of the Moon is Illuminated
Oct 31
Waxing Crescent
Nov 4
First Quarter
Nov 12
Full
Nov 19
Last Quarter
Nov 26
New

Hourly Weather History & Observations

Time (EDT) Temp. Windchill Dew Point Humidity Pressure Visibility Wind Dir Wind Speed Gust Speed Precip Events Conditions
12:15 AM 37.4 °F 32.1 °F 34.3 °F 89% 30.02 in 10.0 mi North 6.9 mph - N/A Rain Light Rain
12:35 AM 36.5 °F 29.7 °F 34.2 °F 91% 30.02 in 5.0 mi North 9.2 mph - N/A Rain Light Rain
12:55 AM 36.9 °F 31.4 °F 34.3 °F 91% 30.02 in 7.0 mi North 6.9 mph - N/A Rain Light Rain
1:36 AM 36.3 °F 30.8 °F 33.8 °F 91% 30.01 in 4.0 mi North 6.9 mph - N/A Rain Light Rain
1:55 AM 36.3 °F 31.6 °F 33.8 °F 91% 29.99 in 4.0 mi North 5.8 mph 17.3 mph N/A   Overcast
1:56 AM 36.3 °F 32.5 °F 33.8 °F 91% 29.99 in 4.0 mi North 4.6 mph 17.3 mph N/A   Overcast
2:15 AM 36.7 °F 32.9 °F 34.3 °F 91% 29.99 in 5.0 mi North 4.6 mph - N/A Rain Light Rain
2:39 AM 36.9 °F 31.4 °F 34.7 °F 92% 29.98 in 10.0 mi NNE 6.9 mph - N/A Rain Light Rain
2:57 AM 37.0 °F 32.4 °F 34.9 °F 92% 29.98 in 7.0 mi North 5.8 mph - N/A Rain Light Rain
3:15 AM 37.4 °F 32.1 °F 35.1 °F 91% 29.97 in 7.0 mi North 6.9 mph - N/A Rain Light Rain
3:35 AM 37.4 °F 32.8 °F 34.9 °F 91% 29.96 in 10.0 mi NE 5.8 mph - N/A Rain Light Rain
3:36 AM 37.4 °F 32.8 °F 34.9 °F 91% 29.96 in 10.0 mi NE 5.8 mph - N/A Rain Light Rain
3:55 AM 37.0 °F 31.6 °F 34.7 °F 91% 29.94 in 10.0 mi NNE 6.9 mph 19.6 mph N/A Rain Light Rain
4:00 AM 37.0 °F 31.6 °F 34.7 °F 91% 29.94 in 10.0 mi NNE 6.9 mph - N/A Rain Light Rain
4:18 AM 36.9 °F 30.7 °F 34.7 °F 92% 29.93 in 10.0 mi NNE 8.1 mph - N/A Rain Light Rain
4:36 AM 36.9 °F 32.2 °F 34.7 °F 92% 29.93 in 10.0 mi NNE 5.8 mph - N/A Rain Rain
4:55 AM 36.9 °F 32.2 °F 34.2 °F 90% 29.93 in 10.0 mi NNE 5.8 mph 19.6 mph N/A Rain Light Rain
4:56 AM 36.9 °F 30.7 °F 34.2 °F 90% 29.93 in 7.0 mi NNE 8.1 mph 19.6 mph N/A Rain Light Rain
5:15 AM 36.9 °F 31.4 °F 34.7 °F 92% 29.91 in 7.0 mi NE 6.9 mph - N/A Rain Light Rain
5:16 AM 36.9 °F 33.1 °F 34.7 °F 92% 29.91 in 7.0 mi NE 4.6 mph - N/A Rain Light Rain
5:39 AM 36.5 °F 28.7 °F 34.2 °F 91% 29.91 in 7.0 mi NNE 11.5 mph 20.7 mph N/A Rain Light Rain
5:57 AM 36.5 °F 29.7 °F 34.0 °F 91% 29.92 in 7.0 mi NNE 9.2 mph 18.4 mph N/A Rain Rain
6:15 AM 36.5 °F 28.7 °F 34.0 °F 91% 29.91 in 7.0 mi NE 11.5 mph 18.4 mph N/A Rain Light Rain
6:16 AM 36.5 °F 28.7 °F 34.0 °F 91% 29.91 in 7.0 mi NE 11.5 mph 18.4 mph N/A Rain Light Rain
6:35 AM 36.5 °F 30.3 °F 34.0 °F 91% 29.92 in 5.0 mi NE 8.1 mph 17.3 mph N/A Rain Light Rain
6:36 AM 36.5 °F 31.0 °F 34.0 °F 91% 29.92 in 5.0 mi NE 6.9 mph 17.3 mph N/A Rain Light Rain
6:55 AM 35.8 °F 30.1 °F 33.8 °F 92% 29.89 in 5.0 mi NNE 6.9 mph - N/A   Overcast
7:00 AM 35.8 °F 28.8 °F 33.8 °F 92% 29.90 in 5.0 mi North 9.2 mph - N/A Rain Rain
7:18 AM 35.8 °F 28.8 °F 33.8 °F 92% 29.89 in 7.0 mi NNE 9.2 mph - N/A Rain Light Rain
7:36 AM 35.8 °F 30.9 °F 33.8 °F 92% 29.89 in 10.0 mi NNE 5.8 mph - N/A Rain Light Rain
7:55 AM 36.0 °F 30.3 °F 33.8 °F 92% 29.89 in 10.0 mi NE 6.9 mph - N/A   Light Drizzle
8:15 AM 36.1 °F 32.3 °F 33.8 °F 91% 29.87 in 10.0 mi NNE 4.6 mph - N/A Rain Light Rain
8:16 AM 36.1 °F 32.3 °F 33.8 °F 91% 29.87 in 10.0 mi NNE 4.6 mph - N/A Rain Light Rain
8:39 AM 36.1 °F 32.3 °F 34.0 °F 92% 29.85 in 10.0 mi NE 4.6 mph - N/A Rain Light Rain
8:57 AM 36.1 °F 29.3 °F 34.0 °F 92% 29.85 in 10.0 mi NE 9.2 mph - N/A Rain Light Rain
9:15 AM 36.1 °F 31.4 °F 33.8 °F 91% 29.85 in 10.0 mi NE 5.8 mph - N/A Rain Light Rain
9:35 AM 36.1 °F 29.3 °F 33.8 °F 91% 29.85 in 7.0 mi NE 9.2 mph - N/A Rain Light Rain
9:36 AM 36.1 °F 29.9 °F 33.8 °F 91% 29.85 in 7.0 mi NE 8.1 mph - N/A Rain Light Rain
9:55 AM 35.8 °F 28.3 °F 33.6 °F 92% 29.84 in 5.0 mi NE 10.4 mph 16.1 mph N/A   Overcast
10:00 AM 35.6 °F 30.7 °F 33.3 °F 91% 29.84 in 5.0 mi NNE 5.8 mph 16.1 mph N/A Rain Light Rain
10:18 AM 35.8 °F 30.1 °F 33.4 °F 91% 29.83 in 7.0 mi NNE 6.9 mph - N/A Rain Rain
10:36 AM 35.8 °F 29.4 °F 33.4 °F 91% 29.83 in 5.0 mi NNE 8.1 mph - N/A Rain Light Rain
10:55 AM 36.0 °F 31.1 °F 33.8 °F 92% 29.83 in 10.0 mi NNE 5.8 mph - N/A   Light Drizzle
11:15 AM 35.8 °F 33.0 °F 33.4 °F 91% 29.81 in 5.0 mi North 3.5 mph - N/A Rain Light Rain
11:16 AM 35.8 °F 33.0 °F 33.4 °F 91% 29.81 in 5.0 mi NNE 3.5 mph - N/A Rain Light Rain
11:39 AM 35.8 °F 31.9 °F 33.6 °F 92% 29.81 in 5.0 mi NNE 4.6 mph - N/A Rain Light Rain
11:57 AM 35.6 °F 29.2 °F 33.4 °F 92% 29.81 in 5.0 mi NNE 8.1 mph - N/A Rain Light Rain
12:15 PM 35.6 °F 31.7 °F 33.6 °F 92% 29.80 in 4.0 mi North 4.6 mph - N/A Rain Light Rain
12:35 PM 34.9 °F 27.1 °F 33.1 °F 93% 29.80 in 3.0 mi NE 10.4 mph - N/A Snow Light Snow
12:55 PM 35.6 °F 29.9 °F 33.6 °F 92% 29.77 in 4.0 mi NNE 6.9 mph - N/A Rain Light Rain
1:00 PM 36.0 °F 29.6 °F 34.0 °F 93% 29.77 in 7.0 mi NNE 8.1 mph - N/A Rain Light Rain
1:18 PM 36.5 °F 31.0 °F 34.2 °F 91% 29.77 in 10.0 mi NNE 6.9 mph - N/A Rain Light Rain
1:36 PM 37.2 °F 29.6 °F 34.5 °F 90% 29.76 in 10.0 mi NNE 11.5 mph 20.7 mph N/A Rain Light Rain
1:55 PM 37.0 °F 29.8 °F 34.2 °F 89% 29.75 in 5.0 mi North 10.4 mph 23.0 mph N/A Rain Rain
2:15 PM 36.9 °F 28.7 °F 33.8 °F 89% 29.74 in 3.0 mi North 12.7 mph 25.3 mph N/A Rain Rain
2:39 PM 35.8 °F 27.3 °F 32.9 °F 89% 29.74 in 2.5 mi North 12.7 mph 21.9 mph N/A   Overcast
2:57 PM 36.1 °F 27.7 °F 33.1 °F 89% 29.74 in 5.0 mi North 12.7 mph 24.2 mph N/A Rain Light Rain
3:15 PM 36.1 °F 26.5 °F 33.1 °F 89% 29.74 in 7.0 mi NNW 16.1 mph 21.9 mph N/A Rain Light Rain
3:35 PM 35.8 °F 27.8 °F 33.1 °F 90% 29.75 in 3.0 mi NNW 11.5 mph 24.2 mph N/A Rain Light Rain
3:36 PM 35.8 °F 26.9 °F 32.9 °F 89% 29.75 in 3.0 mi NNW 13.8 mph 24.2 mph N/A Rain Light Rain
3:55 PM 35.6 °F 26.2 °F 32.7 °F 89% 29.75 in 4.0 mi NNW 15.0 mph 25.3 mph N/A Rain Light Rain
4:18 PM 35.6 °F 27.5 °F 32.5 °F 89% 29.76 in 5.0 mi NNW 11.5 mph 28.8 mph N/A Rain Light Rain
4:36 PM 35.4 °F 26.0 °F 32.2 °F 88% 29.77 in 7.0 mi NNW 15.0 mph 25.3 mph N/A Rain Light Rain
4:55 PM 34.7 °F 25.9 °F 32.0 °F 90% 29.77 in 3.0 mi NNW 12.7 mph 24.2 mph N/A Snow Light Snow
4:56 PM 34.7 °F 26.4 °F 32.0 °F 90% 29.77 in 3.0 mi NNW 11.5 mph 24.2 mph N/A Snow Light Snow
5:15 PM 34.0 °F 25.0 °F 32.0 °F 92% 29.78 in 2.5 mi NNW 12.7 mph 18.4 mph N/A Snow Light Snow
5:16 PM 34.2 °F 24.0 °F 32.0 °F 92% 29.78 in 2.5 mi NNW 16.1 mph 20.7 mph N/A Snow Light Snow
5:39 PM 34.7 °F 25.9 °F 31.8 °F 89% 29.79 in 5.0 mi NNW 12.7 mph 19.6 mph N/A Snow Light Snow
5:56 PM 34.7 °F 25.5 °F 31.3 °F 87% 29.79 in 5.0 mi NNW 13.8 mph 24.2 mph N/A Snow Light Snow
6:15 PM 34.7 °F 25.9 °F 31.1 °F 87% 29.80 in 5.0 mi NNW 12.7 mph 17.3 mph N/A Snow Light Snow
6:16 PM 34.7 °F 25.5 °F 31.1 °F 87% 29.79 in 5.0 mi NNW 13.8 mph 19.6 mph N/A Snow Light Snow
6:35 PM 34.5 °F 25.7 °F 30.9 °F 87% 29.80 in 4.0 mi NNW 12.7 mph 26.5 mph N/A Snow Light Snow
6:36 PM 34.3 °F 25.5 °F 30.9 °F 87% 29.80 in 4.0 mi NNW 12.7 mph 26.5 mph N/A Snow Light Snow
6:55 PM 34.3 °F 24.2 °F 31.1 °F 88% 29.80 in 5.0 mi NNW 16.1 mph 25.3 mph N/A Snow Light Snow
7:00 PM 34.2 °F 23.3 °F 31.1 °F 89% 29.81 in 5.0 mi NW 18.4 mph 28.8 mph N/A Snow Light Snow
7:17 PM 33.8 °F 25.8 °F 31.6 °F 92% 29.82 in 7.0 mi NW 10.4 mph 24.2 mph N/A Snow Light Snow
7:36 PM 33.3 °F 22.8 °F 31.6 °F 94% 29.82 in 2.0 mi NNW 16.1 mph 21.9 mph N/A Snow Light Snow
7:55 PM 33.1 °F 24.4 °F 31.3 °F 93% 29.83 in 2.5 mi NNW 11.5 mph 21.9 mph N/A Snow Light Snow
7:56 PM 33.1 °F 23.4 °F 31.1 °F 92% 29.83 in 2.5 mi NNW 13.8 mph 21.9 mph N/A Snow Light Snow
8:15 PM 33.3 °F 22.8 °F 31.1 °F 92% 29.84 in 2.5 mi NW 16.1 mph - N/A Snow Light Snow
8:16 PM 33.3 °F 23.2 °F 31.3 °F 92% 29.84 in 2.5 mi NW 15.0 mph 18.4 mph N/A Snow Light Snow
8:39 PM 33.6 °F 24.1 °F 31.1 °F 90% 29.85 in 5.0 mi NNW 13.8 mph 25.3 mph N/A Snow Light Snow
8:57 PM 33.8 °F 25.3 °F 30.6 °F 88% 29.86 in 5.0 mi NW 11.5 mph 26.5 mph N/A Snow Light Snow
9:15 PM 34.5 °F 25.3 °F 29.3 °F 81% 29.86 in 10.0 mi NNW 13.8 mph 23.0 mph N/A   Overcast
9:16 PM 34.5 °F 24.5 °F 29.3 °F 81% 29.86 in 10.0 mi NNW 16.1 mph 26.5 mph N/A Snow Light Snow
9:35 PM 34.7 °F 26.4 °F 28.9 °F 79% 29.87 in 10.0 mi NW 11.5 mph 21.9 mph N/A   Overcast
9:36 PM 34.7 °F 26.4 °F 28.9 °F 79% 29.87 in 10.0 mi NW 11.5 mph 21.9 mph N/A   Overcast
9:55 PM 34.7 °F 24.7 °F 29.1 °F 80% 29.88 in 10.0 mi NW 16.1 mph 25.3 mph N/A   Overcast
10:18 PM 34.5 °F 24.5 °F 28.4 °F 78% 29.89 in 10.0 mi NW 16.1 mph 23.0 mph N/A   Overcast
10:36 PM 34.5 °F 25.7 °F 28.0 °F 77% 29.90 in 10.0 mi NW 12.7 mph 21.9 mph N/A   Overcast
10:55 PM 34.5 °F 25.7 °F 27.1 °F 74% 29.91 in 10.0 mi NW 12.7 mph 20.7 mph N/A   Overcast
10:56 PM 34.7 °F 25.9 °F 27.1 °F 74% 29.91 in 10.0 mi NW 12.7 mph 20.7 mph N/A   Overcast
11:15 PM 34.3 °F 27.0 °F 27.1 °F 75% 29.91 in 10.0 mi NW 9.2 mph - N/A   Overcast
11:39 PM 34.7 °F 25.9 °F 26.1 °F 71% 29.92 in 10.0 mi NW 12.7 mph 19.6 mph N/A   Overcast
11:57 PM 34.3 °F 25.9 °F 26.8 °F 74% 29.93 in 10.0 mi NW 11.5 mph 19.6 mph N/A   Overcast